X  Cerrar Datos meteorológicos de aviación METAR     EHKD De Kooy Airport
Temperatura
15°C Temperatura
14°C Punto de rocío
94% Humedad



Viento
13 KM/H
8 MPH
4 M/S
7 NUDO



250°
OSO
Condiciones actuales

Thunderstorm, Lluvia Thunderstorm, Lluvia
Presión 1005.76 (hPa) - 29.7 (inHg)
Visibilidad 6 (milla) - 9.7 (km)
Aeropuerto
Código de aeropuerto EHKD

localidad: De Kooy Airport
Distancia: 34 (km)

Metar:
EHKD 211955Z AUTO 25007KT 9999 TSRA FEW015CB BKN041 BKN060 15/14 Q1006 BLU

Hora: 21-05-2024 21:55 CEST